WXM80 ListenWXM80 Stop

You find our weather info also at:

UK Metoffice

WeatherCloud

Weather Underground

Northeastern Weather Network

AWEKAS

Citizen Weather Observer Program (CWOP)

HAMweather, WeatherForYou, PWS Weather


Weather Underground History page Text

Daily Summary for February 25, 2018 Units:  Both    English   Metric
« Previous Day
Next Day »
Daily Weekly Monthly Yearly Custom
  High: Low: Average:
Temperature: 42.4 °F /  5.8 °C 38.9 °F /  3.8 °C 40.4 °F /  4.7 °C
Dew Point: 41.9 °F /  5.5 °C 38.1 °F /  3.4 °C 39.7 °F /  4.3 °C
Humidity: 98 % 94 % 97 %
Wind Speed: 12.5 mph /  20.1 km/h - 5 mph /  8 km/h
Wind Gust: 19.6 mph /  31.5 km/h - -
Wind:- - East
Pressure: 29.97 in /  1014.8 hPa 29.66 in /  1004.3 hPa -
Precipitation: 0.58 in /  14.73 mm    
Historical Graphs
 
 
Tabular Data for February 25, 2018
Time Temperature Dew Point Pressure Wind Wind Speed Wind Gust Humidity Rainfall Rate (Hourly)
00:00 41.5 °F /  5.3 °C 40.2 °F /  4.6 °C 29.97 in /  1014.8 hPa ENE 0.3 mph /  0.5 km/h 2.0 mph /  3.2 km/h 95 % 0.00 in /  0 mm
00:05 41.4 °F /  5.2 °C 40.1 °F /  4.5 °C 29.97 in /  1014.8 hPa ENE 1.5 mph /  2.4 km/h 2.3 mph /  3.7 km/h 95 % 0.00 in /  0 mm
00:10 41.4 °F /  5.2 °C 40.1 °F /  4.5 °C 29.97 in /  1014.8 hPa ENE 1.4 mph /  2.3 km/h 3.0 mph /  4.8 km/h 95 % 0.00 in /  0 mm
00:15 41.4 °F /  5.2 °C 40.1 °F /  4.5 °C 29.96 in /  1014.4 hPa ENE 0.8 mph /  1.3 km/h 2.0 mph /  3.2 km/h 95 % 0.00 in /  0 mm
00:20 41.4 °F /  5.2 °C 40.1 °F /  4.5 °C 29.96 in /  1014.4 hPa ENE 1.3 mph /  2.1 km/h 2.3 mph /  3.7 km/h 95 % 0.00 in /  0 mm
00:25 41.5 °F /  5.3 °C 40.2 °F /  4.6 °C 29.96 in /  1014.4 hPa ENE 2.6 mph /  4.2 km/h 3.5 mph /  5.6 km/h 95 % 0.00 in /  0 mm
00:30 41.5 °F /  5.3 °C 40.2 °F /  4.6 °C 29.96 in /  1014.4 hPa ENE 2.2 mph /  3.5 km/h 3.5 mph /  5.6 km/h 95 % 0.00 in /  0 mm
00:35 41.5 °F /  5.3 °C 40.2 °F /  4.6 °C 29.96 in /  1014.4 hPa East 2.8 mph /  4.5 km/h 5.8 mph /  9.3 km/h 95 % 0.00 in /  0 mm
00:40 41.4 °F /  5.2 °C 40.1 °F /  4.5 °C 29.96 in /  1014.4 hPa ENE 1.4 mph /  2.3 km/h 2.3 mph /  3.7 km/h 95 % 0.00 in /  0 mm
00:45 41.4 °F /  5.2 °C 40.1 °F /  4.5 °C 29.96 in /  1014.4 hPa East 2.8 mph /  4.5 km/h 5.0 mph /  8 km/h 95 % 0.00 in /  0 mm
00:50 41.4 °F /  5.2 °C 40.1 °F /  4.5 °C 29.95 in /  1014.1 hPa East 2.8 mph /  4.5 km/h 3.5 mph /  5.6 km/h 95 % 0.00 in /  0 mm
00:55 41.4 °F /  5.2 °C 40.1 °F /  4.5 °C 29.95 in /  1014.1 hPa East 3.4 mph /  5.5 km/h 4.6 mph /  7.4 km/h 95 % 0.00 in /  0 mm
01:00 41.4 °F /  5.2 °C 40.1 °F /  4.5 °C 29.96 in /  1014.4 hPa East 3.8 mph /  6.1 km/h 4.6 mph /  7.4 km/h 95 % 0.00 in /  0 mm
01:06 41.4 °F /  5.2 °C 40.1 °F /  4.5 °C 29.95 in /  1014.1 hPa East 3.0 mph /  4.8 km/h 7.0 mph /  11.3 km/h 95 % 0.00 in /  0 mm
01:11 41.4 °F /  5.2 °C 40.1 °F /  4.5 °C 29.96 in /  1014.4 hPa East 2.0 mph /  3.2 km/h 5.0 mph /  8 km/h 95 % 0.00 in /  0 mm
01:16 41.5 °F /  5.3 °C 40.2 °F /  4.6 °C 29.95 in /  1014.1 hPa East 1.5 mph /  2.4 km/h 3.5 mph /  5.6 km/h 95 % 0.00 in /  0 mm
01:21 41.5 °F /  5.3 °C 40.2 °F /  4.6 °C 29.96 in /  1014.4 hPa East 2.0 mph /  3.2 km/h 3.0 mph /  4.8 km/h 95 % 0.00 in /  0 mm
01:26 41.5 °F /  5.3 °C 40.2 °F /  4.6 °C 29.95 in /  1014.1 hPa East 2.0 mph /  3.2 km/h 5.0 mph /  8 km/h 95 % 0.00 in /  0 mm
01:31 41.5 °F /  5.3 °C 40.2 °F /  4.6 °C 29.95 in /  1014.1 hPa East 1.0 mph /  1.6 km/h 5.0 mph /  8 km/h 95 % 0.00 in /  0 mm
01:36 41.5 °F /  5.3 °C 40.2 °F /  4.6 °C 29.95 in /  1014.1 hPa East 3.0 mph /  4.8 km/h 5.0 mph /  8 km/h 95 % 0.00 in /  0 mm
01:41 41.5 °F /  5.3 °C 40.2 °F /  4.6 °C 29.95 in /  1014.1 hPa East 2.0 mph /  3.2 km/h 5.0 mph /  8 km/h 95 % 0.00 in /  0 mm
01:46 41.6 °F /  5.3 °C 40.3 °F /  4.6 °C 29.96 in /  1014.4 hPa East 1.0 mph /  1.6 km/h 5.0 mph /  8 km/h 95 % 0.00 in /  0 mm
01:51 41.6 °F /  5.3 °C 40.3 °F /  4.6 °C 29.96 in /  1014.4 hPa East 1.0 mph /  1.6 km/h 3.0 mph /  4.8 km/h 95 % 0.00 in /  0 mm
01:56 41.6 °F /  5.3 °C 40.3 °F /  4.6 °C 29.95 in /  1014.1 hPa East 2.0 mph /  3.2 km/h 5.0 mph /  8 km/h 95 % 0.00 in /  0 mm
02:01 41.6 °F /  5.3 °C 40.3 °F /  4.6 °C 29.95 in /  1014.1 hPa East 2.1 mph /  3.4 km/h 3.5 mph /  5.6 km/h 95 % 0.00 in /  0 mm
02:05 41.6 °F /  5.3 °C 40.3 °F /  4.6 °C 29.94 in /  1013.8 hPa East 2.3 mph /  3.7 km/h 3.5 mph /  5.6 km/h 95 % 0.00 in /  0 mm
02:11 41.6 °F /  5.3 °C 40.3 °F /  4.6 °C 29.93 in /  1013.4 hPa ENE 3.0 mph /  4.8 km/h 4.0 mph /  6.4 km/h 95 % 0.00 in /  0 mm
02:16 41.6 °F /  5.3 °C 40.3 °F /  4.6 °C 29.92 in /  1013.1 hPa ENE 3.0 mph /  4.8 km/h 6.0 mph /  9.7 km/h 95 % 0.00 in /  0 mm
02:21 41.5 °F /  5.3 °C 40.2 °F /  4.6 °C 29.92 in /  1013.1 hPa ENE 5.0 mph /  8 km/h 7.0 mph /  11.3 km/h 95 % 0.00 in /  0 mm
02:26 41.4 °F /  5.2 °C 40.1 °F /  4.5 °C 29.93 in /  1013.4 hPa ENE 2.0 mph /  3.2 km/h 5.0 mph /  8 km/h 95 % 0.00 in /  0 mm
02:31 41.4 °F /  5.2 °C 40.0 °F /  4.4 °C 29.93 in /  1013.4 hPa ENE 3.0 mph /  4.8 km/h 7.0 mph /  11.3 km/h 95 % 0.00 in /  0 mm
02:36 41.2 °F /  5.1 °C 39.6 °F /  4.2 °C 29.92 in /  1013.1 hPa ENE 5.1 mph /  8.2 km/h 6.9 mph /  11.1 km/h 94 % 0.00 in /  0 mm
02:41 41.1 °F /  5.1 °C 39.5 °F /  4.2 °C 29.92 in /  1013.1 hPa ENE 5.0 mph /  8 km/h 6.0 mph /  9.7 km/h 94 % 0.00 in /  0 mm
02:46 41.0 °F /  5 °C 39.4 °F /  4.1 °C 29.94 in /  1013.8 hPa ENE 2.0 mph /  3.2 km/h 5.0 mph /  8 km/h 94 % 0.00 in /  0 mm
02:51 41.0 °F /  5 °C 39.4 °F /  4.1 °C 29.93 in /  1013.4 hPa ENE 2.0 mph /  3.2 km/h 4.0 mph /  6.4 km/h 94 % 0.00 in /  0 mm
02:56 41.0 °F /  5 °C 39.4 °F /  4.1 °C 29.93 in /  1013.4 hPa ENE 3.0 mph /  4.8 km/h 5.0 mph /  8 km/h 94 % 0.00 in /  0 mm
03:01 40.9 °F /  4.9 °C 39.3 °F /  4.1 °C 29.92 in /  1013.1 hPa ENE 4.2 mph /  6.8 km/h 4.6 mph /  7.4 km/h 94 % 0.00 in /  0 mm
03:06 40.8 °F /  4.9 °C 39.2 °F /  4 °C 29.92 in /  1013.1 hPa ENE 4.2 mph /  6.8 km/h 7.0 mph /  11.3 km/h 94 % 0.00 in /  0 mm
03:11 40.7 °F /  4.8 °C 39.1 °F /  3.9 °C 29.91 in /  1012.8 hPa NE 5.6 mph /  9 km/h 8.1 mph /  13 km/h 94 % 0.00 in /  0 mm
03:16 40.6 °F /  4.8 °C 39.0 °F /  3.9 °C 29.90 in /  1012.4 hPa East 6.1 mph /  9.8 km/h 10.4 mph /  16.7 km/h 94 % 0.00 in /  0 mm
03:21 40.5 °F /  4.7 °C 39.2 °F /  4 °C 29.91 in /  1012.8 hPa ENE 5.2 mph /  8.4 km/h 8.1 mph /  13 km/h 95 % 0.00 in /  0 mm
03:26 40.5 °F /  4.7 °C 39.2 °F /  4 °C 29.90 in /  1012.4 hPa East 6.0 mph /  9.7 km/h 9.2 mph /  14.8 km/h 95 % 0.00 in /  0 mm
03:31 40.4 °F /  4.7 °C 39.1 °F /  3.9 °C 29.90 in /  1012.4 hPa East 5.0 mph /  8 km/h 9.2 mph /  14.8 km/h 95 % 0.00 in /  0 mm
03:36 40.2 °F /  4.6 °C 38.9 °F /  3.8 °C 29.91 in /  1012.8 hPa East 5.0 mph /  8 km/h 6.9 mph /  11.1 km/h 95 % 0.00 in /  0 mm
03:41 40.2 °F /  4.6 °C 38.9 °F /  3.8 °C 29.90 in /  1012.4 hPa East 6.3 mph /  10.1 km/h 7.0 mph /  11.3 km/h 95 % 0.00 in /  0 mm
03:46 40.0 °F /  4.4 °C 38.7 °F /  3.7 °C 29.90 in /  1012.4 hPa East 5.8 mph /  9.3 km/h 9.2 mph /  14.8 km/h 95 % 0.00 in /  0 mm
03:51 40.0 °F /  4.4 °C 38.7 °F /  3.7 °C 29.90 in /  1012.4 hPa East 7.4 mph /  11.9 km/h 9.2 mph /  14.8 km/h 95 % 0.00 in /  0 mm
03:57 40.0 °F /  4.4 °C 38.7 °F /  3.7 °C 29.91 in /  1012.8 hPa East 6.1 mph /  9.8 km/h 9.2 mph /  14.8 km/h 95 % 0.00 in /  0 mm
04:02 40.0 °F /  4.4 °C 39.0 °F /  3.9 °C 29.91 in /  1012.8 hPa ENE 5.5 mph /  8.9 km/h 8.1 mph /  13 km/h 96 % 0.00 in /  0 mm
04:07 40.0 °F /  4.4 °C 39.0 °F /  3.9 °C 29.92 in /  1013.1 hPa ENE 5.4 mph /  8.7 km/h 8.1 mph /  13 km/h 96 % 0.00 in /  0 mm
04:12 40.2 °F /  4.6 °C 39.2 °F /  4 °C 29.92 in /  1013.1 hPa ENE 4.9 mph /  7.9 km/h 8.1 mph /  13 km/h 96 % 0.00 in /  0 mm
04:17 40.2 °F /  4.6 °C 39.2 °F /  4 °C 29.92 in /  1013.1 hPa East 6.7 mph /  10.8 km/h 10.4 mph /  16.7 km/h 96 % 0.00 in /  0 mm
04:22 40.2 °F /  4.6 °C 39.2 °F /  4 °C 29.91 in /  1012.8 hPa East 7.1 mph /  11.4 km/h 10.4 mph /  16.7 km/h 96 % 0.00 in /  0 mm
04:27 40.3 °F /  4.6 °C 39.3 °F /  4.1 °C 29.91 in /  1012.8 hPa East 6.2 mph /  10 km/h 13.8 mph /  22.2 km/h 96 % 0.01 in /  0.25 mm
04:32 40.2 °F /  4.6 °C 39.2 °F /  4 °C 29.93 in /  1013.4 hPa ENE 7.7 mph /  12.4 km/h 11.5 mph /  18.5 km/h 96 % 0.01 in /  0.25 mm
04:37 40.2 °F /  4.6 °C 39.2 °F /  4 °C 29.93 in /  1013.4 hPa ENE 7.8 mph /  12.6 km/h 10.4 mph /  16.7 km/h 96 % 0.02 in /  0.51 mm
04:42 40.0 °F /  4.4 °C 39.0 °F /  3.9 °C 29.92 in /  1013.1 hPa NE 9.3 mph /  15 km/h 13.8 mph /  22.2 km/h 96 % 0.03 in /  0.76 mm
04:47 39.8 °F /  4.3 °C 38.8 °F /  3.8 °C 29.93 in /  1013.4 hPa East 10.3 mph /  16.6 km/h 12.7 mph /  20.4 km/h 96 % 0.05 in /  1.27 mm
04:52 39.7 °F /  4.3 °C 38.7 °F /  3.7 °C 29.93 in /  1013.4 hPa East 8.2 mph /  13.2 km/h 10.4 mph /  16.7 km/h 96 % 0.06 in /  1.52 mm
04:57 39.6 °F /  4.2 °C 38.6 °F /  3.7 °C 29.91 in /  1012.8 hPa ENE 9.8 mph /  15.8 km/h 13.8 mph /  22.2 km/h 96 % 0.07 in /  1.78 mm
05:02 39.6 °F /  4.2 °C 38.6 °F /  3.7 °C 29.90 in /  1012.4 hPa East 9.2 mph /  14.8 km/h 11.5 mph /  18.5 km/h 96 % 0.09 in /  2.29 mm
05:07 39.5 °F /  4.2 °C 38.5 °F /  3.6 °C 29.90 in /  1012.4 hPa East 9.8 mph /  15.8 km/h 12.7 mph /  20.4 km/h 96 % 0.10 in /  2.54 mm
05:12 39.5 °F /  4.2 °C 38.5 °F /  3.6 °C 29.91 in /  1012.8 hPa East 9.6 mph /  15.4 km/h 12.7 mph /  20.4 km/h 96 % 0.11 in /  2.79 mm
05:17 39.5 °F /  4.2 °C 38.5 °F /  3.6 °C 29.90 in /  1012.4 hPa ENE 9.4 mph /  15.1 km/h 13.8 mph /  22.2 km/h 96 % 0.11 in /  2.79 mm
05:22 39.5 °F /  4.2 °C 38.5 °F /  3.6 °C 29.90 in /  1012.4 hPa ENE 10.8 mph /  17.4 km/h 13.8 mph /  22.2 km/h 96 % 0.12 in /  3.05 mm
05:27 39.4 °F /  4.1 °C 38.4 °F /  3.6 °C 29.90 in /  1012.4 hPa East 8.9 mph /  14.3 km/h 11.5 mph /  18.5 km/h 96 % 0.12 in /  3.05 mm
05:32 39.4 °F /  4.1 °C 38.4 °F /  3.6 °C 29.90 in /  1012.4 hPa ENE 9.8 mph /  15.8 km/h 13.0 mph /  20.9 km/h 96 % 0.12 in /  3.05 mm
05:37 39.4 °F /  4.1 °C 38.4 °F /  3.6 °C 29.90 in /  1012.4 hPa NE 9.3 mph /  15 km/h 11.5 mph /  18.5 km/h 96 % 0.12 in /  3.05 mm
05:42 39.3 °F /  4.1 °C 38.3 °F /  3.5 °C 29.90 in /  1012.4 hPa East 9.0 mph /  14.5 km/h 11.5 mph /  18.5 km/h 96 % 0.11 in /  2.79 mm
05:48 39.3 °F /  4.1 °C 38.3 °F /  3.5 °C 29.89 in /  1012.1 hPa East 10.8 mph /  17.4 km/h 13.8 mph /  22.2 km/h 96 % 0.10 in /  2.54 mm
05:53 39.3 °F /  4.1 °C 38.3 °F /  3.5 °C 29.88 in /  1011.7 hPa ENE 12.3 mph /  19.8 km/h 15.0 mph /  24.1 km/h 96 % 0.10 in /  2.54 mm
05:58 39.2 °F /  4 °C 38.2 °F /  3.4 °C 29.88 in /  1011.7 hPa East 10.8 mph /  17.4 km/h 13.8 mph /  22.2 km/h 96 % 0.10 in /  2.54 mm
06:03 39.2 °F /  4 °C 38.2 °F /  3.4 °C 29.87 in /  1011.4 hPa East 10.7 mph /  17.2 km/h 14.0 mph /  22.5 km/h 96 % 0.09 in /  2.29 mm
06:08 39.2 °F /  4 °C 38.2 °F /  3.4 °C 29.88 in /  1011.7 hPa East 12.2 mph /  19.6 km/h 17.3 mph /  27.8 km/h 96 % 0.08 in /  2.03 mm
06:13 39.3 °F /  4.1 °C 38.5 °F /  3.6 °C 29.89 in /  1012.1 hPa ENE 10.3 mph /  16.6 km/h 16.1 mph /  25.9 km/h 97 % 0.08 in /  2.03 mm
06:18 39.3 °F /  4.1 °C 38.5 °F /  3.6 °C 29.89 in /  1012.1 hPa East 9.4 mph /  15.1 km/h 12.7 mph /  20.4 km/h 97 % 0.08 in /  2.03 mm
06:23 39.4 °F /  4.1 °C 38.6 °F /  3.7 °C 29.86 in /  1011.1 hPa ENE 8.8 mph /  14.2 km/h 11.5 mph /  18.5 km/h 97 % 0.08 in /  2.03 mm
06:28 39.5 °F /  4.2 °C 38.7 °F /  3.7 °C 29.86 in /  1011.1 hPa ESE 10.9 mph /  17.5 km/h 13.8 mph /  22.2 km/h 97 % 0.08 in /  2.03 mm
06:33 39.5 °F /  4.2 °C 38.7 °F /  3.7 °C 29.88 in /  1011.7 hPa ENE 10.2 mph /  16.4 km/h 12.7 mph /  20.4 km/h 97 % 0.09 in /  2.29 mm
06:38 39.6 °F /  4.2 °C 38.8 °F /  3.8 °C 29.88 in /  1011.7 hPa East 9.4 mph /  15.1 km/h 12.7 mph /  20.4 km/h 97 % 0.09 in /  2.29 mm
06:43 39.6 °F /  4.2 °C 38.8 °F /  3.8 °C 29.87 in /  1011.4 hPa East 8.9 mph /  14.3 km/h 10.4 mph /  16.7 km/h 97 % 0.09 in /  2.29 mm
06:48 39.6 °F /  4.2 °C 38.8 °F /  3.8 °C 29.89 in /  1012.1 hPa East 6.6 mph /  10.6 km/h 9.2 mph /  14.8 km/h 97 % 0.09 in /  2.29 mm
06:53 39.6 °F /  4.2 °C 38.8 °F /  3.8 °C 29.88 in /  1011.7 hPa East 6.6 mph /  10.6 km/h 10.0 mph /  16.1 km/h 97 % 0.09 in /  2.29 mm
06:58 39.5 °F /  4.2 °C 38.7 °F /  3.7 °C 29.89 in /  1012.1 hPa ENE 6.6 mph /  10.6 km/h 9.2 mph /  14.8 km/h 97 % 0.09 in /  2.29 mm
07:03 39.4 °F /  4.1 °C 38.6 °F /  3.7 °C 29.90 in /  1012.4 hPa ENE 8.9 mph /  14.3 km/h 11.5 mph /  18.5 km/h 97 % 0.10 in /  2.54 mm
07:08 39.2 °F /  4 °C 38.4 °F /  3.6 °C 29.88 in /  1011.7 hPa East 11.3 mph /  18.2 km/h 15.0 mph /  24.1 km/h 97 % 0.10 in /  2.54 mm
07:13 39.1 °F /  3.9 °C 38.3 °F /  3.5 °C 29.89 in /  1012.1 hPa ENE 10.1 mph /  16.3 km/h 11.5 mph /  18.5 km/h 97 % 0.11 in /  2.79 mm
07:19 39.0 °F /  3.9 °C 38.2 °F /  3.4 °C 29.88 in /  1011.7 hPa East 11.6 mph /  18.7 km/h 16.1 mph /  25.9 km/h 97 % 0.13 in /  3.3 mm
07:24 38.9 °F /  3.8 °C 38.1 °F /  3.4 °C 29.88 in /  1011.7 hPa NE 10.2 mph /  16.4 km/h 15.0 mph /  24.1 km/h 97 % 0.12 in /  3.05 mm
07:29 38.9 °F /  3.8 °C 38.1 °F /  3.4 °C 29.88 in /  1011.7 hPa ENE 10.2 mph /  16.4 km/h 16.1 mph /  25.9 km/h 97 % 0.12 in /  3.05 mm
07:34 39.0 °F /  3.9 °C 38.2 °F /  3.4 °C 29.88 in /  1011.7 hPa ENE 10.0 mph /  16.1 km/h 15.0 mph /  24.1 km/h 97 % 0.12 in /  3.05 mm
07:39 39.0 °F /  3.9 °C 38.2 °F /  3.4 °C 29.88 in /  1011.7 hPa East 10.2 mph /  16.4 km/h 15.0 mph /  24.1 km/h 97 % 0.11 in /  2.79 mm
07:44 39.0 °F /  3.9 °C 38.2 °F /  3.4 °C 29.87 in /  1011.4 hPa East 10.6 mph /  17.1 km/h 11.5 mph /  18.5 km/h 97 % 0.11 in /  2.79 mm
07:49 39.0 °F /  3.9 °C 38.2 °F /  3.4 °C 29.87 in /  1011.4 hPa East 9.6 mph /  15.4 km/h 12.7 mph /  20.4 km/h 97 % 0.11 in /  2.79 mm
07:54 39.0 °F /  3.9 °C 38.2 °F /  3.4 °C 29.87 in /  1011.4 hPa East 9.8 mph /  15.8 km/h 12.7 mph /  20.4 km/h 97 % 0.11 in /  2.79 mm
07:59 39.1 °F /  3.9 °C 38.3 °F /  3.5 °C 29.87 in /  1011.4 hPa East 8.0 mph /  12.9 km/h 10.4 mph /  16.7 km/h 97 % 0.09 in /  2.29 mm
08:04 39.1 °F /  3.9 °C 38.3 °F /  3.5 °C 29.87 in /  1011.4 hPa ENE 6.9 mph /  11.1 km/h 9.2 mph /  14.8 km/h 97 % 0.08 in /  2.03 mm
08:09 39.2 °F /  4 °C 38.4 °F /  3.6 °C 29.87 in /  1011.4 hPa NE 5.9 mph /  9.5 km/h 6.9 mph /  11.1 km/h 97 % 0.07 in /  1.78 mm
08:14 39.3 °F /  4.1 °C 38.5 °F /  3.6 °C 29.86 in /  1011.1 hPa ENE 4.9 mph /  7.9 km/h 7.0 mph /  11.3 km/h 97 % 0.05 in /  1.27 mm
08:19 39.4 °F /  4.1 °C 38.6 °F /  3.7 °C 29.87 in /  1011.4 hPa ENE 5.8 mph /  9.3 km/h 9.0 mph /  14.5 km/h 97 % 0.04 in /  1.02 mm
08:24 39.4 °F /  4.1 °C 38.6 °F /  3.7 °C 29.86 in /  1011.1 hPa ENE 7.2 mph /  11.6 km/h 9.2 mph /  14.8 km/h 97 % 0.04 in /  1.02 mm
08:29 39.5 °F /  4.2 °C 38.7 °F /  3.7 °C 29.86 in /  1011.1 hPa East 5.8 mph /  9.3 km/h 10.4 mph /  16.7 km/h 97 % 0.04 in /  1.02 mm
08:34 39.5 °F /  4.2 °C 38.7 °F /  3.7 °C 29.85 in /  1010.7 hPa ENE 7.1 mph /  11.4 km/h 9.2 mph /  14.8 km/h 97 % 0.03 in /  0.76 mm
08:39 39.5 °F /  4.2 °C 38.7 °F /  3.7 °C 29.85 in /  1010.7 hPa ENE 7.5 mph /  12.1 km/h 9.2 mph /  14.8 km/h 97 % 0.03 in /  0.76 mm
08:44 39.3 °F /  4.1 °C 38.5 °F /  3.6 °C 29.86 in /  1011.1 hPa ENE 6.5 mph /  10.5 km/h 10.4 mph /  16.7 km/h 97 % 0.03 in /  0.76 mm
08:49 39.3 °F /  4.1 °C 38.5 °F /  3.6 °C 29.86 in /  1011.1 hPa ENE 6.0 mph /  9.7 km/h 9.2 mph /  14.8 km/h 97 % 0.03 in /  0.76 mm
08:55 39.3 °F /  4.1 °C 38.5 °F /  3.6 °C 29.85 in /  1010.7 hPa ENE 8.4 mph /  13.5 km/h 11.0 mph /  17.7 km/h 97 % 0.02 in /  0.51 mm
09:00 39.3 °F /  4.1 °C 38.8 °F /  3.8 °C 29.85 in /  1010.7 hPa ENE 9.4 mph /  15.1 km/h 12.0 mph /  19.3 km/h 98 % 0.02 in /  0.51 mm
09:05 39.2 °F /  4 °C 38.7 °F /  3.7 °C 29.85 in /  1010.7 hPa ENE 8.7 mph /  14 km/h 13.8 mph /  22.2 km/h 98 % 0.02 in /  0.51 mm
09:10 39.1 °F /  3.9 °C 38.3 °F /  3.5 °C 29.84 in /  1010.4 hPa ENE 9.9 mph /  15.9 km/h 13.8 mph /  22.2 km/h 97 % 0.02 in /  0.51 mm
09:15 39.0 °F /  3.9 °C 38.2 °F /  3.4 °C 29.84 in /  1010.4 hPa ENE 7.9 mph /  12.7 km/h 10.4 mph /  16.7 km/h 97 % 0.03 in /  0.76 mm
09:20 38.9 °F /  3.8 °C 38.1 °F /  3.4 °C 29.83 in /  1010 hPa ENE 8.8 mph /  14.2 km/h 12.7 mph /  20.4 km/h 97 % 0.03 in /  0.76 mm
09:25 38.9 °F /  3.8 °C 38.1 °F /  3.4 °C 29.82 in /  1009.7 hPa NE 9.2 mph /  14.8 km/h 15.0 mph /  24.1 km/h 97 % 0.02 in /  0.51 mm
09:30 38.9 °F /  3.8 °C 38.1 °F /  3.4 °C 29.81 in /  1009.4 hPa ENE 10.3 mph /  16.6 km/h 12.7 mph /  20.4 km/h 97 % 0.02 in /  0.51 mm
09:35 38.9 °F /  3.8 °C 38.4 °F /  3.6 °C 29.82 in /  1009.7 hPa East 10.4 mph /  16.7 km/h 16.1 mph /  25.9 km/h 98 % 0.02 in /  0.51 mm
09:40 38.9 °F /  3.8 °C 38.4 °F /  3.6 °C 29.82 in /  1009.7 hPa ENE 8.9 mph /  14.3 km/h 11.5 mph /  18.5 km/h 98 % 0.01 in /  0.25 mm
09:45 38.9 °F /  3.8 °C 38.4 °F /  3.6 °C 29.80 in /  1009 hPa East 10.2 mph /  16.4 km/h 13.8 mph /  22.2 km/h 98 % 0.02 in /  0.51 mm
09:50 38.9 °F /  3.8 °C 38.4 °F /  3.6 °C 29.79 in /  1008.7 hPa East 10.0 mph /  16.1 km/h 15.0 mph /  24.1 km/h 98 % 0.02 in /  0.51 mm
09:55 38.9 °F /  3.8 °C 38.4 °F /  3.6 °C 29.78 in /  1008.4 hPa ENE 10.4 mph /  16.7 km/h 14.0 mph /  22.5 km/h 98 % 0.03 in /  0.76 mm
10:00 39.0 °F /  3.9 °C 38.5 °F /  3.6 °C 29.78 in /  1008.4 hPa East 9.7 mph /  15.6 km/h 15.0 mph /  24.1 km/h 98 % 0.03 in /  0.76 mm
10:05 39.0 °F /  3.9 °C 38.5 °F /  3.6 °C 29.78 in /  1008.4 hPa East 10.0 mph /  16.1 km/h 11.5 mph /  18.5 km/h 98 % 0.03 in /  0.76 mm
10:10 39.0 °F /  3.9 °C 38.5 °F /  3.6 °C 29.78 in /  1008.4 hPa ENE 9.8 mph /  15.8 km/h 11.5 mph /  18.5 km/h 98 % 0.04 in /  1.02 mm
10:15 39.1 °F /  3.9 °C 38.6 °F /  3.7 °C 29.78 in /  1008.4 hPa ENE 8.6 mph /  13.8 km/h 11.5 mph /  18.5 km/h 98 % 0.03 in /  0.76 mm
10:20 39.1 °F /  3.9 °C 38.6 °F /  3.7 °C 29.77 in /  1008 hPa ENE 9.5 mph /  15.3 km/h 10.4 mph /  16.7 km/h 98 % 0.04 in /  1.02 mm
10:26 39.1 °F /  3.9 °C 38.6 °F /  3.7 °C 29.78 in /  1008.4 hPa East 8.0 mph /  12.9 km/h 13.0 mph /  20.9 km/h 98 % 0.00 in /  0 mm
10:31 39.1 °F /  3.9 °C 38.6 °F /  3.7 °C 29.77 in /  1008 hPa ENE 8.0 mph /  12.9 km/h 13.0 mph /  20.9 km/h 98 % 0.00 in /  0 mm
10:35 39.1 °F /  3.9 °C 38.6 °F /  3.7 °C 29.77 in /  1008 hPa ENE 8.0 mph /  12.9 km/h 12.0 mph /  19.3 km/h 98 % 0.01 in /  0.25 mm
10:40 39.2 °F /  4 °C 38.7 °F /  3.7 °C 29.77 in /  1008 hPa East 7.1 mph /  11.4 km/h 8.1 mph /  13 km/h 98 % 0.09 in /  2.29 mm
10:46 39.2 °F /  4 °C 38.7 °F /  3.7 °C 29.77 in /  1008 hPa ENE 9.0 mph /  14.5 km/h 14.0 mph /  22.5 km/h 98 % 0.01 in /  0.25 mm
10:50 39.2 °F /  4 °C 38.7 °F /  3.7 °C 29.77 in /  1008 hPa ENE 8.0 mph /  12.9 km/h 12.0 mph /  19.3 km/h 98 % 0.00 in /  0 mm
10:55 39.1 °F /  3.9 °C 38.6 °F /  3.7 °C 29.76 in /  1007.7 hPa ENE 8.0 mph /  12.9 km/h 13.0 mph /  20.9 km/h 98 % 0.00 in /  0 mm
11:01 39.1 °F /  3.9 °C 38.6 °F /  3.7 °C 29.77 in /  1008 hPa East 8.1 mph /  13 km/h 12.0 mph /  19.3 km/h 98 % 0.09 in /  2.29 mm
11:06 39.0 °F /  3.9 °C 38.5 °F /  3.6 °C 29.76 in /  1007.7 hPa ENE 8.9 mph /  14.3 km/h 11.5 mph /  18.5 km/h 98 % 0.09 in /  2.29 mm
11:11 39.0 °F /  3.9 °C 38.5 °F /  3.6 °C 29.76 in /  1007.7 hPa NE 9.8 mph /  15.8 km/h 13.8 mph /  22.2 km/h 98 % 0.09 in /  2.29 mm
11:16 39.0 °F /  3.9 °C 38.5 °F /  3.6 °C 29.76 in /  1007.7 hPa ENE 8.2 mph /  13.2 km/h 11.5 mph /  18.5 km/h 98 % 0.09 in /  2.29 mm
11:21 39.0 °F /  3.9 °C 38.5 °F /  3.6 °C 29.75 in /  1007.3 hPa NE 8.9 mph /  14.3 km/h 15.0 mph /  24.1 km/h 98 % 0.09 in /  2.29 mm
11:26 39.1 °F /  3.9 °C 38.6 °F /  3.7 °C 29.75 in /  1007.3 hPa ENE 9.0 mph /  14.5 km/h 13.0 mph /  20.9 km/h 98 % 0.08 in /  2.03 mm
11:31 39.1 °F /  3.9 °C 38.6 °F /  3.7 °C 29.74 in /  1007 hPa ENE 8.8 mph /  14.2 km/h 13.8 mph /  22.2 km/h 98 % 0.08 in /  2.03 mm
11:36 39.1 °F /  3.9 °C 38.6 °F /  3.7 °C 29.75 in /  1007.3 hPa ENE 8.8 mph /  14.2 km/h 12.7 mph /  20.4 km/h 98 % 0.06 in /  1.52 mm
11:41 39.1 °F /  3.9 °C 38.6 °F /  3.7 °C 29.76 in /  1007.7 hPa ENE 8.0 mph /  12.9 km/h 11.5 mph /  18.5 km/h 98 % 0.06 in /  1.52 mm
11:46 39.1 °F /  3.9 °C 38.6 °F /  3.7 °C 29.75 in /  1007.3 hPa ENE 4.9 mph /  7.9 km/h 8.1 mph /  13 km/h 98 % 0.05 in /  1.27 mm
11:51 39.0 °F /  3.9 °C 38.5 °F /  3.6 °C 29.76 in /  1007.7 hPa NE 4.4 mph /  7.1 km/h 7.0 mph /  11.3 km/h 98 % 0.05 in /  1.27 mm
11:56 39.1 °F /  3.9 °C 38.6 °F /  3.7 °C 29.77 in /  1008 hPa NNW 8.2 mph /  13.2 km/h 16.1 mph /  25.9 km/h 98 % 0.05 in /  1.27 mm
12:01 39.1 °F /  3.9 °C 38.6 °F /  3.7 °C 29.75 in /  1007.3 hPa North 6.2 mph /  10 km/h 11.5 mph /  18.5 km/h 98 % 0.05 in /  1.27 mm
12:06 39.1 °F /  3.9 °C 38.6 °F /  3.7 °C 29.75 in /  1007.3 hPa NE 5.3 mph /  8.5 km/h 8.1 mph /  13 km/h 98 % 0.05 in /  1.27 mm
12:11 39.1 °F /  3.9 °C 38.6 °F /  3.7 °C 29.74 in /  1007 hPa ENE 7.3 mph /  11.7 km/h 12.7 mph /  20.4 km/h 98 % 0.05 in /  1.27 mm
12:16 39.1 °F /  3.9 °C 38.6 °F /  3.7 °C 29.73 in /  1006.7 hPa NE 8.9 mph /  14.3 km/h 12.7 mph /  20.4 km/h 98 % 0.05 in /  1.27 mm
12:21 38.9 °F /  3.8 °C 38.4 °F /  3.6 °C 29.72 in /  1006.3 hPa ENE 7.4 mph /  11.9 km/h 12.7 mph /  20.4 km/h 98 % 0.04 in /  1.02 mm
12:26 39.0 °F /  3.9 °C 38.5 °F /  3.6 °C 29.72 in /  1006.3 hPa NE 9.1 mph /  14.6 km/h 15.0 mph /  24.1 km/h 98 % 0.04 in /  1.02 mm
12:31 38.9 °F /  3.8 °C 38.4 °F /  3.6 °C 29.70 in /  1005.6 hPa East 10.8 mph /  17.4 km/h 19.6 mph /  31.5 km/h 98 % 0.03 in /  0.76 mm
12:36 38.9 °F /  3.8 °C 38.4 °F /  3.6 °C 29.69 in /  1005.3 hPa ENE 9.6 mph /  15.4 km/h 17.3 mph /  27.8 km/h 98 % 0.04 in /  1.02 mm
12:41 38.9 °F /  3.8 °C 38.4 °F /  3.6 °C 29.69 in /  1005.3 hPa NE 12.5 mph /  20.1 km/h 17.3 mph /  27.8 km/h 98 % 0.03 in /  0.76 mm
12:46 38.9 °F /  3.8 °C 38.4 °F /  3.6 °C 29.68 in /  1005 hPa ENE 10.7 mph /  17.2 km/h 15.0 mph /  24.1 km/h 98 % 0.03 in /  0.76 mm
12:52 39.0 °F /  3.9 °C 38.5 °F /  3.6 °C 29.68 in /  1005 hPa ENE 9.3 mph /  15 km/h 15.0 mph /  24.1 km/h 98 % 0.03 in /  0.76 mm
12:57 39.0 °F /  3.9 °C 38.5 °F /  3.6 °C 29.67 in /  1004.6 hPa ENE 10.9 mph /  17.5 km/h 13.8 mph /  22.2 km/h 98 % 0.02 in /  0.51 mm
13:02 39.1 °F /  3.9 °C 38.6 °F /  3.7 °C 29.66 in /  1004.3 hPa East 10.9 mph /  17.5 km/h 13.8 mph /  22.2 km/h 98 % 0.02 in /  0.51 mm
13:07 39.2 °F /  4 °C 38.7 °F /  3.7 °C 29.66 in /  1004.3 hPa ENE 8.8 mph /  14.2 km/h 16.1 mph /  25.9 km/h 98 % 0.01 in /  0.25 mm
13:12 39.3 °F /  4.1 °C 38.8 °F /  3.8 °C 29.66 in /  1004.3 hPa East 8.7 mph /  14 km/h 11.5 mph /  18.5 km/h 98 % 0.01 in /  0.25 mm
13:17 39.4 °F /  4.1 °C 38.9 °F /  3.8 °C 29.67 in /  1004.6 hPa ENE 7.5 mph /  12.1 km/h 9.2 mph /  14.8 km/h 98 % 0.01 in /  0.25 mm
13:22 39.3 °F /  4.1 °C 38.8 °F /  3.8 °C 29.68 in /  1005 hPa ENE 8.3 mph /  13.4 km/h 12.7 mph /  20.4 km/h 98 % 0.01 in /  0.25 mm
13:27 39.2 °F /  4 °C 38.7 °F /  3.7 °C 29.67 in /  1004.6 hPa ENE 9.1 mph /  14.6 km/h 15.0 mph /  24.1 km/h 98 % 0.01 in /  0.25 mm
13:32 39.2 °F /  4 °C 38.7 °F /  3.7 °C 29.68 in /  1005 hPa ENE 6.3 mph /  10.1 km/h 11.5 mph /  18.5 km/h 98 % 0.02 in /  0.51 mm
13:37 39.2 °F /  4 °C 38.7 °F /  3.7 °C 29.68 in /  1005 hPa East 9.6 mph /  15.4 km/h 13.0 mph /  20.9 km/h 98 % 0.01 in /  0.25 mm
13:42 39.2 °F /  4 °C 38.7 °F /  3.7 °C 29.68 in /  1005 hPa NE 7.9 mph /  12.7 km/h 11.5 mph /  18.5 km/h 98 % 0.01 in /  0.25 mm
13:47 39.2 °F /  4 °C 38.7 °F /  3.7 °C 29.68 in /  1005 hPa ENE 6.9 mph /  11.1 km/h 10.4 mph /  16.7 km/h 98 % 0.01 in /  0.25 mm
13:52 39.2 °F /  4 °C 38.7 °F /  3.7 °C 29.68 in /  1005 hPa NE 5.9 mph /  9.5 km/h 11.5 mph /  18.5 km/h 98 % 0.01 in /  0.25 mm
13:57 39.3 °F /  4.1 °C 38.8 °F /  3.8 °C 29.69 in /  1005.3 hPa NNE 5.3 mph /  8.5 km/h 8.1 mph /  13 km/h 98 % 0.01 in /  0.25 mm
14:02 39.3 °F /  4.1 °C 38.8 °F /  3.8 °C 29.69 in /  1005.3 hPa ENE 3.3 mph /  5.3 km/h 7.0 mph /  11.3 km/h 98 % 0.01 in /  0.25 mm
14:07 39.3 °F /  4.1 °C 38.8 °F /  3.8 °C 29.67 in /  1004.6 hPa East 9.0 mph /  14.5 km/h 11.5 mph /  18.5 km/h 98 % 0.01 in /  0.25 mm
14:12 39.2 °F /  4 °C 38.7 °F /  3.7 °C 29.67 in /  1004.6 hPa ENE 9.2 mph /  14.8 km/h 12.7 mph /  20.4 km/h 98 % 0.01 in /  0.25 mm
14:18 39.2 °F /  4 °C 38.7 °F /  3.7 °C 29.70 in /  1005.6 hPa NNE 5.3 mph /  8.5 km/h 9.0 mph /  14.5 km/h 98 % 0.01 in /  0.25 mm
14:23 39.3 °F /  4.1 °C 38.8 °F /  3.8 °C 29.74 in /  1007 hPa NNE 7.8 mph /  12.6 km/h 12.7 mph /  20.4 km/h 98 % 0.01 in /  0.25 mm
14:28 39.2 °F /  4 °C 38.7 °F /  3.7 °C 29.73 in /  1006.7 hPa NE 6.1 mph /  9.8 km/h 12.7 mph /  20.4 km/h 98 % 0.01 in /  0.25 mm
14:33 39.3 °F /  4.1 °C 38.8 °F /  3.8 °C 29.72 in /  1006.3 hPa North 6.3 mph /  10.1 km/h 11.5 mph /  18.5 km/h 98 % 0.00 in /  0 mm
14:38 39.3 °F /  4.1 °C 38.8 °F /  3.8 °C 29.72 in /  1006.3 hPa NE 5.4 mph /  8.7 km/h 8.1 mph /  13 km/h 98 % 0.00 in /  0 mm
14:43 39.4 °F /  4.1 °C 38.9 °F /  3.8 °C 29.70 in /  1005.6 hPa NNE 4.3 mph /  6.9 km/h 7.0 mph /  11.3 km/h 98 % 0.00 in /  0 mm
14:48 39.3 °F /  4.1 °C 38.8 °F /  3.8 °C 29.68 in /  1005 hPa ENE 10.0 mph /  16.1 km/h 17.3 mph /  27.8 km/h 98 % 0.00 in /  0 mm
14:53 39.3 °F /  4.1 °C 38.8 °F /  3.8 °C 29.70 in /  1005.6 hPa NE 8.2 mph /  13.2 km/h 12.7 mph /  20.4 km/h 98 % 0.00 in /  0 mm
14:58 39.2 °F /  4 °C 38.7 °F /  3.7 °C 29.71 in /  1006 hPa NE 9.3 mph /  15 km/h 12.7 mph /  20.4 km/h 98 % 0.00 in /  0 mm
15:03 39.3 °F /  4.1 °C 38.8 °F /  3.8 °C 29.72 in /  1006.3 hPa ENE 9.8 mph /  15.8 km/h 14.0 mph /  22.5 km/h 98 % 0.00 in /  0 mm
15:08 39.3 °F /  4.1 °C 38.8 °F /  3.8 °C 29.69 in /  1005.3 hPa ENE 11.2 mph /  18 km/h 17.3 mph /  27.8 km/h 98 % 0.00 in /  0 mm
15:13 39.4 °F /  4.1 °C 38.9 °F /  3.8 °C 29.68 in /  1005 hPa ENE 10.5 mph /  16.9 km/h 13.8 mph /  22.2 km/h 98 % 0.00 in /  0 mm
15:18 39.5 °F /  4.2 °C 39.0 °F /  3.9 °C 29.68 in /  1005 hPa East 8.9 mph /  14.3 km/h 13.8 mph /  22.2 km/h 98 % 0.00 in /  0 mm
15:23 39.7 °F /  4.3 °C 39.2 °F /  4 °C 29.68 in /  1005 hPa ENE 10.6 mph /  17.1 km/h 12.7 mph /  20.4 km/h 98 % 0.00 in /  0 mm
15:28 39.7 °F /  4.3 °C 39.2 °F /  4 °C 29.68 in /  1005 hPa East 10.1 mph /  16.3 km/h 15.0 mph /  24.1 km/h 98 % 0.00 in /  0 mm
15:33 39.8 °F /  4.3 °C 39.3 °F /  4.1 °C 29.69 in /  1005.3 hPa ENE 8.0 mph /  12.9 km/h 10.4 mph /  16.7 km/h 98 % 0.00 in /  0 mm
15:38 40.0 °F /  4.4 °C 39.5 °F /  4.2 °C 29.70 in /  1005.6 hPa ENE 10.1 mph /  16.3 km/h 12.7 mph /  20.4 km/h 98 % 0.00 in /  0 mm
15:44 40.0 °F /  4.4 °C 39.5 °F /  4.2 °C 29.69 in /  1005.3 hPa ENE 7.8 mph /  12.6 km/h 11.5 mph /  18.5 km/h 98 % 0.00 in /  0 mm
15:49 40.2 °F /  4.6 °C 39.7 °F /  4.3 °C 29.69 in /  1005.3 hPa East 8.0 mph /  12.9 km/h 10.4 mph /  16.7 km/h 98 % 0.00 in /  0 mm
15:54 40.3 °F /  4.6 °C 39.8 °F /  4.3 °C 29.70 in /  1005.6 hPa East 7.2 mph /  11.6 km/h 9.2 mph /  14.8 km/h 98 % 0.00 in /  0 mm
15:59 40.5 °F /  4.7 °C 40.0 °F /  4.4 °C 29.71 in /  1006 hPa East 5.6 mph /  9 km/h 7.0 mph /  11.3 km/h 98 % 0.00 in /  0 mm
16:04 40.6 °F /  4.8 °C 40.1 °F /  4.5 °C 29.72 in /  1006.3 hPa NE 4.2 mph /  6.8 km/h 6.9 mph /  11.1 km/h 98 % 0.00 in /  0 mm
16:09 40.6 °F /  4.8 °C 40.1 °F /  4.5 °C 29.72 in /  1006.3 hPa ENE 2.8 mph /  4.5 km/h 4.6 mph /  7.4 km/h 98 % 0.00 in /  0 mm
16:14 40.6 °F /  4.8 °C 40.1 °F /  4.5 °C 29.73 in /  1006.7 hPa ENE 3.1 mph /  5 km/h 4.6 mph /  7.4 km/h 98 % 0.00 in /  0 mm
16:19 40.6 °F /  4.8 °C 40.1 °F /  4.5 °C 29.71 in /  1006 hPa East 3.3 mph /  5.3 km/h 5.8 mph /  9.3 km/h 98 % 0.00 in /  0 mm
16:24 40.6 °F /  4.8 °C 40.1 °F /  4.5 °C 29.71 in /  1006 hPa NE 2.1 mph /  3.4 km/h 3.5 mph /  5.6 km/h 98 % 0.00 in /  0 mm
16:29 40.6 °F /  4.8 °C 40.1 °F /  4.5 °C 29.69 in /  1005.3 hPa East 8.2 mph /  13.2 km/h 9.2 mph /  14.8 km/h 98 % 0.00 in /  0 mm
16:34 40.6 °F /  4.8 °C 40.1 °F /  4.5 °C 29.68 in /  1005 hPa East 2.8 mph /  4.5 km/h 5.8 mph /  9.3 km/h 98 % 0.00 in /  0 mm
16:39 40.7 °F /  4.8 °C 40.2 °F /  4.6 °C 29.69 in /  1005.3 hPa NE 0.1 mph /  0.2 km/h 3.5 mph /  5.6 km/h 98 % 0.00 in /  0 mm
16:44 40.8 °F /  4.9 °C 40.3 °F /  4.6 °C 29.71 in /  1006 hPa NNE 2.6 mph /  4.2 km/h 3.5 mph /  5.6 km/h 98 % 0.00 in /  0 mm
16:49 40.9 °F /  4.9 °C 40.4 °F /  4.7 °C 29.72 in /  1006.3 hPa NNE 1.2 mph /  1.9 km/h 2.0 mph /  3.2 km/h 98 % 0.00 in /  0 mm
16:54 40.9 °F /  4.9 °C 40.4 °F /  4.7 °C 29.72 in /  1006.3 hPa NNE 1.4 mph /  2.3 km/h 2.0 mph /  3.2 km/h 98 % 0.00 in /  0 mm
16:59 41.0 °F /  5 °C 40.5 °F /  4.7 °C 29.72 in /  1006.3 hPa Calm   1.2 mph /  1.9 km/h 98 % 0.00 in /  0 mm
17:04 41.0 °F /  5 °C 40.5 °F /  4.7 °C 29.71 in /  1006 hPa Calm     98 % 0.00 in /  0 mm
17:09 41.1 °F /  5.1 °C 40.6 °F /  4.8 °C 29.71 in /  1006 hPa Calm     98 % 0.00 in /  0 mm
17:15 41.1 °F /  5.1 °C 40.6 °F /  4.8 °C 29.72 in /  1006.3 hPa Calm     98 % 0.00 in /  0 mm
17:20 41.1 °F /  5.1 °C 40.6 °F /  4.8 °C 29.73 in /  1006.7 hPa Calm     98 % 0.00 in /  0 mm
17:25 41.1 °F /  5.1 °C 40.6 °F /  4.8 °C 29.72 in /  1006.3 hPa Calm     98 % 0.00 in /  0 mm
17:30 41.1 °F /  5.1 °C 40.6 °F /  4.8 °C 29.72 in /  1006.3 hPa Calm     98 % 0.00 in /  0 mm
17:35 41.1 °F /  5.1 °C 40.6 °F /  4.8 °C 29.71 in /  1006 hPa Calm     98 % 0.00 in /  0 mm
17:40 41.2 °F /  5.1 °C 40.7 °F /  4.8 °C 29.71 in /  1006 hPa Calm     98 % 0.00 in /  0 mm
17:45 41.3 °F /  5.2 °C 40.8 °F /  4.9 °C 29.70 in /  1005.6 hPa Calm     98 % 0.00 in /  0 mm
17:50 41.3 °F /  5.2 °C 40.8 °F /  4.9 °C 29.69 in /  1005.3 hPa Calm     98 % 0.00 in /  0 mm
17:55 41.4 °F /  5.2 °C 40.9 °F /  4.9 °C 29.70 in /  1005.6 hPa Calm     98 % 0.00 in /  0 mm
18:00 41.4 °F /  5.2 °C 40.9 °F /  4.9 °C 29.71 in /  1006 hPa Calm     98 % 0.00 in /  0 mm
18:05 41.4 °F /  5.2 °C 40.9 °F /  4.9 °C 29.71 in /  1006 hPa NNE 0.4 mph /  0.6 km/h 1.2 mph /  1.9 km/h 98 % 0.00 in /  0 mm
18:10 41.4 °F /  5.2 °C 40.9 °F /  4.9 °C 29.71 in /  1006 hPa Calm     98 % 0.00 in /  0 mm
18:15 41.5 °F /  5.3 °C 41.0 °F /  5 °C 29.71 in /  1006 hPa Calm   1.2 mph /  1.9 km/h 98 % 0.00 in /  0 mm
18:20 41.5 °F /  5.3 °C 41.0 °F /  5 °C 29.70 in /  1005.6 hPa Calm     98 % 0.00 in /  0 mm
18:25 41.6 °F /  5.3 °C 41.1 °F /  5.1 °C 29.71 in /  1006 hPa Calm     98 % 0.00 in /  0 mm
18:30 41.6 °F /  5.3 °C 41.1 °F /  5.1 °C 29.71 in /  1006 hPa Calm     98 % 0.00 in /  0 mm
18:36 41.7 °F /  5.4 °C 41.2 °F /  5.1 °C 29.71 in /  1006 hPa Calm     98 % 0.00 in /  0 mm
18:41 41.7 °F /  5.4 °C 41.2 °F /  5.1 °C 29.72 in /  1006.3 hPa Calm     98 % 0.00 in /  0 mm
18:46 41.7 °F /  5.4 °C 41.2 °F /  5.1 °C 29.72 in /  1006.3 hPa Calm     98 % 0.00 in /  0 mm
18:51 41.8 °F /  5.4 °C 41.3 °F /  5.2 °C 29.72 in /  1006.3 hPa Calm     98 % 0.00 in /  0 mm
18:56 41.8 °F /  5.4 °C 41.3 °F /  5.2 °C 29.72 in /  1006.3 hPa Calm     98 % 0.00 in /  0 mm
19:01 41.8 °F /  5.4 °C 41.3 °F /  5.2 °C 29.72 in /  1006.3 hPa Calm     98 % 0.00 in /  0 mm
19:06 41.8 °F /  5.4 °C 41.3 °F /  5.2 °C 29.72 in /  1006.3 hPa NNE 0.2 mph /  0.3 km/h 1.2 mph /  1.9 km/h 98 % 0.00 in /  0 mm
19:11 41.7 °F /  5.4 °C 41.2 °F /  5.1 °C 29.73 in /  1006.7 hPa NNE 0.1 mph /  0.2 km/h 1.2 mph /  1.9 km/h 98 % 0.00 in /  0 mm
19:16 41.8 °F /  5.4 °C 41.3 °F /  5.2 °C 29.73 in /  1006.7 hPa NNW 1.0 mph /  1.6 km/h 3.5 mph /  5.6 km/h 98 % 0.00 in /  0 mm
19:21 41.7 °F /  5.4 °C 41.2 °F /  5.1 °C 29.73 in /  1006.7 hPa Calm     98 % 0.00 in /  0 mm
19:26 41.7 °F /  5.4 °C 41.2 °F /  5.1 °C 29.73 in /  1006.7 hPa NNW 0.2 mph /  0.3 km/h 1.2 mph /  1.9 km/h 98 % 0.00 in /  0 mm
19:31 41.7 °F /  5.4 °C 41.2 °F /  5.1 °C 29.74 in /  1007 hPa NNW 0.6 mph /  1 km/h 2.3 mph /  3.7 km/h 98 % 0.00 in /  0 mm
19:36 41.7 °F /  5.4 °C 41.2 °F /  5.1 °C 29.74 in /  1007 hPa NNW 0.9 mph /  1.4 km/h 2.3 mph /  3.7 km/h 98 % 0.00 in /  0 mm
19:41 41.6 °F /  5.3 °C 41.1 °F /  5.1 °C 29.74 in /  1007 hPa NNW 0.5 mph /  0.8 km/h 2.0 mph /  3.2 km/h 98 % 0.00 in /  0 mm
19:46 41.6 °F /  5.3 °C 41.1 °F /  5.1 °C 29.75 in /  1007.3 hPa NNW 0.7 mph /  1.1 km/h 3.5 mph /  5.6 km/h 98 % 0.00 in /  0 mm
19:51 41.6 °F /  5.3 °C 41.1 °F /  5.1 °C 29.75 in /  1007.3 hPa Calm     98 % 0.00 in /  0 mm
19:56 41.6 °F /  5.3 °C 41.1 °F /  5.1 °C 29.75 in /  1007.3 hPa Calm     98 % 0.00 in /  0 mm
20:01 41.6 °F /  5.3 °C 41.1 °F /  5.1 °C 29.76 in /  1007.7 hPa NNW 0.1 mph /  0.2 km/h 1.2 mph /  1.9 km/h 98 % 0.00 in /  0 mm
20:06 41.6 °F /  5.3 °C 41.1 °F /  5.1 °C 29.76 in /  1007.7 hPa Calm   1.2 mph /  1.9 km/h 98 % 0.00 in /  0 mm
20:11 41.6 °F /  5.3 °C 41.1 °F /  5.1 °C 29.75 in /  1007.3 hPa Calm     98 % 0.00 in /  0 mm
20:16 41.6 °F /  5.3 °C 41.1 °F /  5.1 °C 29.74 in /  1007 hPa Calm     98 % 0.00 in /  0 mm
20:21 41.5 °F /  5.3 °C 41.0 °F /  5 °C 29.73 in /  1006.7 hPa Calm     98 % 0.00 in /  0 mm
20:26 41.6 °F /  5.3 °C 41.1 °F /  5.1 °C 29.74 in /  1007 hPa Calm     98 % 0.00 in /  0 mm
20:31 41.6 °F /  5.3 °C 41.1 °F /  5.1 °C 29.74 in /  1007 hPa Calm     98 % 0.00 in /  0 mm
20:37 41.6 °F /  5.3 °C 41.1 °F /  5.1 °C 29.74 in /  1007 hPa Calm     98 % 0.00 in /  0 mm
20:42 41.6 °F /  5.3 °C 41.1 °F /  5.1 °C 29.74 in /  1007 hPa Calm     98 % 0.00 in /  0 mm
20:47 41.6 °F /  5.3 °C 41.1 °F /  5.1 °C 29.75 in /  1007.3 hPa Calm     98 % 0.00 in /  0 mm
20:52 41.7 °F /  5.4 °C 41.2 °F /  5.1 °C 29.74 in /  1007 hPa Calm   1.2 mph /  1.9 km/h 98 % 0.00 in /  0 mm
20:57 41.7 °F /  5.4 °C 41.2 °F /  5.1 °C 29.75 in /  1007.3 hPa NNW 0.3 mph /  0.5 km/h 1.2 mph /  1.9 km/h 98 % 0.00 in /  0 mm
21:02 41.7 °F /  5.4 °C 41.2 °F /  5.1 °C 29.75 in /  1007.3 hPa Calm   1.2 mph /  1.9 km/h 98 % 0.00 in /  0 mm
21:07 41.8 °F /  5.4 °C 41.3 °F /  5.2 °C 29.75 in /  1007.3 hPa NNW 1.4 mph /  2.3 km/h 4.6 mph /  7.4 km/h 98 % 0.00 in /  0 mm
21:12 41.8 °F /  5.4 °C 41.3 °F /  5.2 °C 29.75 in /  1007.3 hPa Calm     98 % 0.00 in /  0 mm
21:17 41.8 °F /  5.4 °C 41.3 °F /  5.2 °C 29.77 in /  1008 hPa NNW 1.0 mph /  1.6 km/h 2.3 mph /  3.7 km/h 98 % 0.00 in /  0 mm
21:22 41.8 °F /  5.4 °C 41.3 °F /  5.2 °C 29.77 in /  1008 hPa Calm   1.0 mph /  1.6 km/h 98 % 0.00 in /  0 mm
21:27 41.9 °F /  5.5 °C 41.4 °F /  5.2 °C 29.77 in /  1008 hPa Calm   1.2 mph /  1.9 km/h 98 % 0.00 in /  0 mm
21:32 41.9 °F /  5.5 °C 41.4 °F /  5.2 °C 29.76 in /  1007.7 hPa Calm     98 % 0.00 in /  0 mm
21:37 41.9 °F /  5.5 °C 41.4 °F /  5.2 °C 29.77 in /  1008 hPa NNW 0.9 mph /  1.4 km/h 3.5 mph /  5.6 km/h 98 % 0.00 in /  0 mm
21:42 41.9 °F /  5.5 °C 41.4 °F /  5.2 °C 29.76 in /  1007.7 hPa Calm     98 % 0.00 in /  0 mm
21:47 41.9 °F /  5.5 °C 41.4 °F /  5.2 °C 29.76 in /  1007.7 hPa Calm     98 % 0.00 in /  0 mm
21:52 41.9 °F /  5.5 °C 41.4 °F /  5.2 °C 29.76 in /  1007.7 hPa Calm     98 % 0.00 in /  0 mm
21:57 41.9 °F /  5.5 °C 41.4 °F /  5.2 °C 29.77 in /  1008 hPa Calm     98 % 0.00 in /  0 mm
22:02 42.0 °F /  5.6 °C 41.5 °F /  5.3 °C 29.76 in /  1007.7 hPa Calm     98 % 0.00 in /  0 mm
22:07 42.0 °F /  5.6 °C 41.5 °F /  5.3 °C 29.77 in /  1008 hPa NNW 0.8 mph /  1.3 km/h 1.0 mph /  1.6 km/h 98 % 0.00 in /  0 mm
22:12 42.0 °F /  5.6 °C 41.5 °F /  5.3 °C 29.76 in /  1007.7 hPa Calm     98 % 0.00 in /  0 mm
22:17 42.0 °F /  5.6 °C 41.5 °F /  5.3 °C 29.77 in /  1008 hPa Calm     98 % 0.00 in /  0 mm
22:22 42.0 °F /  5.6 °C 41.5 °F /  5.3 °C 29.77 in /  1008 hPa Calm     98 % 0.00 in /  0 mm
22:28 42.0 °F /  5.6 °C 41.5 °F /  5.3 °C 29.77 in /  1008 hPa Calm     98 % 0.00 in /  0 mm
22:33 42.0 °F /  5.6 °C 41.5 °F /  5.3 °C 29.76 in /  1007.7 hPa Calm     98 % 0.00 in /  0 mm
22:38 42.1 °F /  5.6 °C 41.6 °F /  5.3 °C 29.76 in /  1007.7 hPa Calm     98 % 0.00 in /  0 mm
22:43 42.1 °F /  5.6 °C 41.6 °F /  5.3 °C 29.76 in /  1007.7 hPa Calm     98 % 0.00 in /  0 mm
22:48 42.1 °F /  5.6 °C 41.6 °F /  5.3 °C 29.77 in /  1008 hPa Calm     98 % 0.00 in /  0 mm
22:53 42.1 °F /  5.6 °C 41.6 °F /  5.3 °C 29.76 in /  1007.7 hPa Calm     98 % 0.00 in /  0 mm
22:58 42.1 °F /  5.6 °C 41.6 °F /  5.3 °C 29.77 in /  1008 hPa Calm     98 % 0.00 in /  0 mm
23:03 42.1 °F /  5.6 °C 41.6 °F /  5.3 °C 29.76 in /  1007.7 hPa Calm   1.2 mph /  1.9 km/h 98 % 0.00 in /  0 mm
23:08 42.1 °F /  5.6 °C 41.6 °F /  5.3 °C 29.75 in /  1007.3 hPa Calm     98 % 0.00 in /  0 mm
23:13 42.2 °F /  5.7 °C 41.7 °F /  5.4 °C 29.75 in /  1007.3 hPa Calm     98 % 0.00 in /  0 mm
23:18 42.2 °F /  5.7 °C 41.7 °F /  5.4 °C 29.76 in /  1007.7 hPa Calm     98 % 0.00 in /  0 mm
23:23 42.2 °F /  5.7 °C 41.7 °F /  5.4 °C 29.76 in /  1007.7 hPa Calm     98 % 0.00 in /  0 mm
23:28 42.2 °F /  5.7 °C 41.7 °F /  5.4 °C 29.76 in /  1007.7 hPa NNW 0.7 mph /  1.1 km/h 2.3 mph /  3.7 km/h 98 % 0.00 in /  0 mm
23:33 42.3 °F /  5.7 °C 41.8 °F /  5.4 °C 29.76 in /  1007.7 hPa Calm   2.3 mph /  3.7 km/h 98 % 0.00 in /  0 mm
23:38 42.3 °F /  5.7 °C 41.8 °F /  5.4 °C 29.76 in /  1007.7 hPa Calm     98 % 0.00 in /  0 mm
23:43 42.3 °F /  5.7 °C 41.8 °F /  5.4 °C 29.76 in /  1007.7 hPa Calm     98 % 0.00 in /  0 mm
23:48 42.3 °F /  5.7 °C 41.8 °F /  5.4 °C 29.76 in /  1007.7 hPa West 1.3 mph /  2.1 km/h 1.3 mph /  2.1 km/h 98 % 0.00 in /  0 mm
23:54 42.4 °F /  5.8 °C 41.9 °F /  5.5 °C 29.77 in /  1008 hPa West 1.0 mph /  1.6 km/h 3.5 mph /  5.6 km/h 98 % 0.00 in /  0 mm
23:59 42.4 °F /  5.8 °C 41.9 °F /  5.5 °C 29.76 in /  1007.7 hPa WNW 0.1 mph /  0.2 km/h 2.3 mph /  3.7 km/h 98 % 0.00 in /  0 mm
Crab Meadow Weather
Compliments of Weather Underground - 3 mb

Script developed by  Jim McMurry - jmcmurry@mwt.net Adapted for the template by  Wim van der Kuil - Leuven-Template.eu

Weather Terms: Freeze Warning - Widespread temperatures at or below 32°F during the growing season. A freeze may occur with or without frost. A hard freeze occurs with temperatures below 28°F. Growing season is based on the average date of first and last freeze at O'Hare. It begins April 17 and ends October 27.